sensor_id;sensor_type;location;lat;lon;timestamp;P1;durP1;ratioP1;P2;durP2;ratioP2
10465;SDS011;5280;42.600;23.556;2023-05-10T00:02:21;6.10;;;5.50;;
10465;SDS011;5280;42.600;23.556;2023-05-10T00:04:48;5.70;;;5.30;;
10465;SDS011;5280;42.600;23.556;2023-05-10T00:07:23;6.00;;;5.60;;
10465;SDS011;5280;42.600;23.556;2023-05-10T00:09:52;6.43;;;5.93;;
10465;SDS011;5280;42.600;23.556;2023-05-10T00:12:19;6.50;;;6.00;;
10465;SDS011;5280;42.600;23.556;2023-05-10T00:14:45;6.87;;;6.33;;
10465;SDS011;5280;42.600;23.556;2023-05-10T00:17:12;7.27;;;6.73;;
10465;SDS011;5280;42.600;23.556;2023-05-10T00:19:42;7.10;;;6.37;;
10465;SDS011;5280;42.600;23.556;2023-05-10T00:22:09;7.77;;;6.77;;
10465;SDS011;5280;42.600;23.556;2023-05-10T00:24:40;7.53;;;6.80;;
10465;SDS011;5280;42.600;23.556;2023-05-10T00:27:08;6.90;;;6.30;;
10465;SDS011;5280;42.600;23.556;2023-05-10T00:29:35;7.30;;;6.30;;
10465;SDS011;5280;42.600;23.556;2023-05-10T00:32:02;7.73;;;6.97;;
10465;SDS011;5280;42.600;23.556;2023-05-10T00:34:29;6.83;;;6.13;;
10465;SDS011;5280;42.600;23.556;2023-05-10T00:36:56;6.43;;;6.00;;
10465;SDS011;5280;42.600;23.556;2023-05-10T00:39:24;5.70;;;5.30;;
10465;SDS011;5280;42.600;23.556;2023-05-10T00:41:51;6.23;;;5.63;;
10465;SDS011;5280;42.600;23.556;2023-05-10T00:44:20;6.30;;;5.77;;
10465;SDS011;5280;42.600;23.556;2023-05-10T00:46:46;5.67;;;5.17;;
10465;SDS011;5280;42.600;23.556;2023-05-10T00:49:14;5.40;;;5.00;;
10465;SDS011;5280;42.600;23.556;2023-05-10T00:51:42;5.63;;;5.17;;
10465;SDS011;5280;42.600;23.556;2023-05-10T00:54:09;5.90;;;5.43;;
10465;SDS011;5280;42.600;23.556;2023-05-10T00:56:38;6.23;;;5.67;;
10465;SDS011;5280;42.600;23.556;2023-05-10T00:59:05;6.40;;;5.90;;
10465;SDS011;5280;42.600;23.556;2023-05-10T01:01:34;6.03;;;5.53;;
10465;SDS011;5280;42.600;23.556;2023-05-10T01:04:01;10.10;;;6.00;;
10465;SDS011;5280;42.600;23.556;2023-05-10T01:06:29;5.97;;;5.33;;
10465;SDS011;5280;42.600;23.556;2023-05-10T01:08:56;6.50;;;5.90;;
10465;SDS011;5280;42.600;23.556;2023-05-10T01:11:23;5.90;;;5.40;;
10465;SDS011;5280;42.600;23.556;2023-05-10T01:13:52;5.47;;;5.07;;
10465;SDS011;5280;42.600;23.556;2023-05-10T01:16:24;5.70;;;5.23;;
10465;SDS011;5280;42.600;23.556;2023-05-10T01:18:56;5.70;;;5.20;;
10465;SDS011;5280;42.600;23.556;2023-05-10T01:21:23;5.40;;;4.90;;
10465;SDS011;5280;42.600;23.556;2023-05-10T01:24:09;5.80;;;5.20;;
10465;SDS011;5280;42.600;23.556;2023-05-10T01:32:55;5.40;;;4.97;;
10465;SDS011;5280;42.600;23.556;2023-05-10T01:35:50;5.90;;;5.40;;
10465;SDS011;5280;42.600;23.556;2023-05-10T01:38:39;5.67;;;5.17;;
10465;SDS011;5280;42.600;23.556;2023-05-10T01:41:28;6.37;;;5.20;;
10465;SDS011;5280;42.600;23.556;2023-05-10T01:44:09;5.83;;;5.33;;
10465;SDS011;5280;42.600;23.556;2023-05-10T01:46:57;6.23;;;5.63;;
10465;SDS011;5280;42.600;23.556;2023-05-10T01:49:43;5.40;;;4.90;;
10465;SDS011;5280;42.600;23.556;2023-05-10T01:52:19;5.43;;;4.87;;
10465;SDS011;5280;42.600;23.556;2023-05-10T01:54:53;5.10;;;4.70;;
10465;SDS011;5280;42.600;23.556;2023-05-10T01:57:36;4.97;;;4.57;;
10465;SDS011;5280;42.600;23.556;2023-05-10T02:00:09;5.50;;;5.00;;
10465;SDS011;5280;42.600;23.556;2023-05-10T02:02:39;4.97;;;4.43;;
10465;SDS011;5280;42.600;23.556;2023-05-10T02:05:09;4.13;;;3.83;;
10465;SDS011;5280;42.600;23.556;2023-05-10T02:07:39;4.20;;;3.70;;
10465;SDS011;5280;42.600;23.556;2023-05-10T02:10:07;5.13;;;4.00;;
10465;SDS011;5280;42.600;23.556;2023-05-10T02:12:37;5.03;;;4.63;;
10465;SDS011;5280;42.600;23.556;2023-05-10T02:15:10;9.77;;;4.43;;
10465;SDS011;5280;42.600;23.556;2023-05-10T02:17:39;4.33;;;3.93;;
10465;SDS011;5280;42.600;23.556;2023-05-10T02:20:14;4.40;;;3.87;;
10465;SDS011;5280;42.600;23.556;2023-05-10T02:22:47;4.70;;;4.30;;
10465;SDS011;5280;42.600;23.556;2023-05-10T02:25:30;4.77;;;4.27;;
10465;SDS011;5280;42.600;23.556;2023-05-10T02:27:59;5.33;;;3.83;;
10465;SDS011;5280;42.600;23.556;2023-05-10T02:30:29;5.20;;;4.70;;
10465;SDS011;5280;42.600;23.556;2023-05-10T02:33:01;5.70;;;5.10;;
10465;SDS011;5280;42.600;23.556;2023-05-10T02:35:31;4.97;;;4.33;;
10465;SDS011;5280;42.600;23.556;2023-05-10T02:38:02;5.40;;;4.53;;
10465;SDS011;5280;42.600;23.556;2023-05-10T02:40:30;5.33;;;4.83;;
10465;SDS011;5280;42.600;23.556;2023-05-10T02:42:59;5.00;;;4.40;;
10465;SDS011;5280;42.600;23.556;2023-05-10T02:45:29;5.27;;;3.73;;
10465;SDS011;5280;42.600;23.556;2023-05-10T02:47:58;5.37;;;4.27;;
10465;SDS011;5280;42.600;23.556;2023-05-10T02:50:28;6.97;;;4.33;;
10465;SDS011;5280;42.600;23.556;2023-05-10T02:52:59;4.17;;;3.70;;
10465;SDS011;5280;42.600;23.556;2023-05-10T02:55:31;4.43;;;4.03;;
10465;SDS011;5280;42.600;23.556;2023-05-10T02:58:01;4.53;;;4.10;;
10465;SDS011;5280;42.600;23.556;2023-05-10T03:00:29;4.43;;;3.60;;
10465;SDS011;5280;42.600;23.556;2023-05-10T03:02:56;4.67;;;3.20;;
10465;SDS011;5280;42.600;23.556;2023-05-10T03:05:23;4.67;;;3.90;;
10465;SDS011;5280;42.600;23.556;2023-05-10T03:07:52;3.93;;;3.63;;
10465;SDS011;5280;42.600;23.556;2023-05-10T03:10:19;4.00;;;3.70;;
10465;SDS011;5280;42.600;23.556;2023-05-10T03:12:56;5.63;;;3.90;;
10465;SDS011;5280;42.600;23.556;2023-05-10T03:15:35;4.00;;;3.60;;
10465;SDS011;5280;42.600;23.556;2023-05-10T03:18:09;5.67;;;4.43;;
10465;SDS011;5280;42.600;23.556;2023-05-10T03:20:41;4.63;;;4.23;;
10465;SDS011;5280;42.600;23.556;2023-05-10T03:23:12;5.23;;;3.90;;
10465;SDS011;5280;42.600;23.556;2023-05-10T03:25:44;6.33;;;3.97;;
10465;SDS011;5280;42.600;23.556;2023-05-10T03:28:14;4.77;;;4.10;;
10465;SDS011;5280;42.600;23.556;2023-05-10T03:30:42;4.40;;;4.00;;
10465;SDS011;5280;42.600;23.556;2023-05-10T03:33:10;6.60;;;4.30;;
10465;SDS011;5280;42.600;23.556;2023-05-10T03:35:37;5.53;;;4.43;;
10465;SDS011;5280;42.600;23.556;2023-05-10T03:38:04;5.83;;;4.27;;
10465;SDS011;5280;42.600;23.556;2023-05-10T03:40:33;4.20;;;3.80;;
10465;SDS011;5280;42.600;23.556;2023-05-10T03:42:59;4.80;;;4.30;;
10465;SDS011;5280;42.600;23.556;2023-05-10T03:45:26;4.40;;;3.93;;
10465;SDS011;5280;42.600;23.556;2023-05-10T03:47:53;6.07;;;4.37;;
10465;SDS011;5280;42.600;23.556;2023-05-10T03:50:20;4.43;;;3.97;;
10465;SDS011;5280;42.600;23.556;2023-05-10T03:52:50;4.20;;;3.83;;
10465;SDS011;5280;42.600;23.556;2023-05-10T03:55:17;5.00;;;4.07;;
10465;SDS011;5280;42.600;23.556;2023-05-10T03:57:45;5.33;;;4.83;;
10465;SDS011;5280;42.600;23.556;2023-05-10T04:00:14;4.40;;;4.00;;
10465;SDS011;5280;42.600;23.556;2023-05-10T04:02:42;4.37;;;3.97;;
10465;SDS011;5280;42.600;23.556;2023-05-10T04:05:08;5.17;;;4.07;;
10465;SDS011;5280;42.600;23.556;2023-05-10T04:07:35;5.80;;;4.57;;
10465;SDS011;5280;42.600;23.556;2023-05-10T04:10:02;5.63;;;4.43;;
10465;SDS011;5280;42.600;23.556;2023-05-10T04:12:29;8.37;;;5.17;;
10465;SDS011;5280;42.600;23.556;2023-05-10T04:14:58;4.83;;;4.40;;
10465;SDS011;5280;42.600;23.556;2023-05-10T04:17:26;4.83;;;4.30;;
10465;SDS011;5280;42.600;23.556;2023-05-10T04:19:55;4.37;;;4.07;;
10465;SDS011;5280;42.600;23.556;2023-05-10T04:22:22;4.87;;;4.47;;
10465;SDS011;5280;42.600;23.556;2023-05-10T04:24:49;5.23;;;4.80;;
10465;SDS011;5280;42.600;23.556;2023-05-10T04:27:16;5.83;;;5.10;;
10465;SDS011;5280;42.600;23.556;2023-05-10T04:29:42;5.30;;;4.90;;
10465;SDS011;5280;42.600;23.556;2023-05-10T04:32:11;5.33;;;4.80;;
10465;SDS011;5280;42.600;23.556;2023-05-10T04:34:39;5.40;;;5.00;;
10465;SDS011;5280;42.600;23.556;2023-05-10T04:37:06;6.17;;;5.13;;
10465;SDS011;5280;42.600;23.556;2023-05-10T04:39:33;5.27;;;4.83;;
10465;SDS011;5280;42.600;23.556;2023-05-10T04:42:00;5.77;;;5.20;;
10465;SDS011;5280;42.600;23.556;2023-05-10T04:44:27;6.23;;;5.00;;
10465;SDS011;5280;42.600;23.556;2023-05-10T04:46:54;7.20;;;5.23;;
10465;SDS011;5280;42.600;23.556;2023-05-10T04:49:23;5.37;;;4.57;;
10465;SDS011;5280;42.600;23.556;2023-05-10T04:51:49;8.10;;;5.00;;
10465;SDS011;5280;42.600;23.556;2023-05-10T04:54:16;7.20;;;5.20;;
10465;SDS011;5280;42.600;23.556;2023-05-10T04:56:43;6.37;;;5.23;;
10465;SDS011;5280;42.600;23.556;2023-05-10T04:59:10;5.23;;;4.73;;
10465;SDS011;5280;42.600;23.556;2023-05-10T05:01:39;5.00;;;4.60;;
10465;SDS011;5280;42.600;23.556;2023-05-10T05:04:06;6.10;;;5.60;;
10465;SDS011;5280;42.600;23.556;2023-05-10T05:06:34;6.77;;;5.73;;
10465;SDS011;5280;42.600;23.556;2023-05-10T05:09:01;6.77;;;5.93;;
10465;SDS011;5280;42.600;23.556;2023-05-10T05:11:28;5.77;;;5.27;;
10465;SDS011;5280;42.600;23.556;2023-05-10T05:13:55;7.27;;;5.73;;
10465;SDS011;5280;42.600;23.556;2023-05-10T05:16:24;7.00;;;5.73;;
10465;SDS011;5280;42.600;23.556;2023-05-10T05:18:51;5.97;;;4.83;;
10465;SDS011;5280;42.600;23.556;2023-05-10T05:21:20;8.80;;;6.07;;
10465;SDS011;5280;42.600;23.556;2023-05-10T05:23:49;6.63;;;5.70;;
10465;SDS011;5280;42.600;23.556;2023-05-10T05:26:15;6.63;;;5.87;;
10465;SDS011;5280;42.600;23.556;2023-05-10T05:28:42;7.70;;;5.37;;
10465;SDS011;5280;42.600;23.556;2023-05-10T05:31:09;5.80;;;5.20;;
10465;SDS011;5280;42.600;23.556;2023-05-10T05:33:36;6.50;;;5.47;;
10465;SDS011;5280;42.600;23.556;2023-05-10T05:36:05;5.50;;;5.00;;
10465;SDS011;5280;42.600;23.556;2023-05-10T05:38:32;6.20;;;5.20;;
10465;SDS011;5280;42.600;23.556;2023-05-10T05:41:01;5.00;;;4.60;;
10465;SDS011;5280;42.600;23.556;2023-05-10T05:43:28;5.33;;;4.83;;
10465;SDS011;5280;42.600;23.556;2023-05-10T05:45:55;5.83;;;5.23;;
10465;SDS011;5280;42.600;23.556;2023-05-10T05:48:22;8.93;;;5.50;;
10465;SDS011;5280;42.600;23.556;2023-05-10T05:50:49;5.90;;;4.80;;
10465;SDS011;5280;42.600;23.556;2023-05-10T05:53:16;5.53;;;4.50;;
10465;SDS011;5280;42.600;23.556;2023-05-10T05:55:50;4.87;;;4.47;;
10465;SDS011;5280;42.600;23.556;2023-05-10T05:58:19;5.90;;;4.93;;
10465;SDS011;5280;42.600;23.556;2023-05-10T06:00:46;5.40;;;4.90;;
10465;SDS011;5280;42.600;23.556;2023-05-10T06:03:13;5.23;;;4.80;;
10465;SDS011;5280;42.600;23.556;2023-05-10T06:05:39;5.30;;;4.90;;
10465;SDS011;5280;42.600;23.556;2023-05-10T06:08:06;5.60;;;4.50;;
10465;SDS011;5280;42.600;23.556;2023-05-10T06:10:33;5.07;;;4.60;;
10465;SDS011;5280;42.600;23.556;2023-05-10T06:13:00;4.97;;;4.47;;
10465;SDS011;5280;42.600;23.556;2023-05-10T06:15:28;4.53;;;4.13;;
10465;SDS011;5280;42.600;23.556;2023-05-10T06:17:55;5.73;;;4.37;;
10465;SDS011;5280;42.600;23.556;2023-05-10T06:20:22;4.27;;;3.93;;
10465;SDS011;5280;42.600;23.556;2023-05-10T06:22:49;6.60;;;4.87;;
10465;SDS011;5280;42.600;23.556;2023-05-10T06:25:16;5.77;;;4.60;;
10465;SDS011;5280;42.600;23.556;2023-05-10T06:27:43;4.67;;;4.20;;
10465;SDS011;5280;42.600;23.556;2023-05-10T06:30:10;8.53;;;4.80;;
10465;SDS011;5280;42.600;23.556;2023-05-10T06:32:41;5.47;;;4.97;;
10465;SDS011;5280;42.600;23.556;2023-05-10T06:35:10;4.20;;;3.90;;
10465;SDS011;5280;42.600;23.556;2023-05-10T06:37:37;5.20;;;4.80;;
10465;SDS011;5280;42.600;23.556;2023-05-10T06:40:05;4.67;;;4.00;;
10465;SDS011;5280;42.600;23.556;2023-05-10T06:42:33;5.13;;;4.63;;
10465;SDS011;5280;42.600;23.556;2023-05-10T06:45:00;5.50;;;5.00;;
10465;SDS011;5280;42.600;23.556;2023-05-10T06:47:26;5.57;;;5.07;;
10465;SDS011;5280;42.600;23.556;2023-05-10T06:49:55;8.87;;;5.50;;
10465;SDS011;5280;42.600;23.556;2023-05-10T06:52:21;5.37;;;4.87;;
10465;SDS011;5280;42.600;23.556;2023-05-10T06:54:48;5.27;;;4.77;;
10465;SDS011;5280;42.600;23.556;2023-05-10T06:57:16;5.67;;;4.93;;
10465;SDS011;5280;42.600;23.556;2023-05-10T06:59:44;5.13;;;4.63;;
10465;SDS011;5280;42.600;23.556;2023-05-10T07:02:11;6.03;;;4.90;;
10465;SDS011;5280;42.600;23.556;2023-05-10T07:04:39;6.30;;;5.80;;
10465;SDS011;5280;42.600;23.556;2023-05-10T07:07:08;5.90;;;5.20;;
10465;SDS011;5280;42.600;23.556;2023-05-10T07:09:38;6.17;;;4.90;;
10465;SDS011;5280;42.600;23.556;2023-05-10T07:12:05;5.87;;;5.33;;
10465;SDS011;5280;42.600;23.556;2023-05-10T07:14:32;5.27;;;4.77;;
10465;SDS011;5280;42.600;23.556;2023-05-10T07:16:59;6.33;;;4.57;;
10465;SDS011;5280;42.600;23.556;2023-05-10T07:19:26;6.47;;;4.83;;
10465;SDS011;5280;42.600;23.556;2023-05-10T07:21:54;5.00;;;4.60;;
10465;SDS011;5280;42.600;23.556;2023-05-10T07:24:23;5.63;;;5.07;;
10465;SDS011;5280;42.600;23.556;2023-05-10T07:26:50;5.33;;;4.83;;
10465;SDS011;5280;42.600;23.556;2023-05-10T07:29:17;5.33;;;4.93;;
10465;SDS011;5280;42.600;23.556;2023-05-10T07:31:44;5.03;;;4.40;;
10465;SDS011;5280;42.600;23.556;2023-05-10T07:34:11;6.63;;;4.63;;
10465;SDS011;5280;42.600;23.556;2023-05-10T07:36:38;5.40;;;4.70;;
10465;SDS011;5280;42.600;23.556;2023-05-10T07:39:04;5.80;;;4.37;;
10465;SDS011;5280;42.600;23.556;2023-05-10T07:41:33;5.63;;;4.80;;
10465;SDS011;5280;42.600;23.556;2023-05-10T07:44:00;4.87;;;4.47;;
10465;SDS011;5280;42.600;23.556;2023-05-10T07:46:27;6.00;;;5.10;;
10465;SDS011;5280;42.600;23.556;2023-05-10T07:48:53;5.80;;;5.00;;
10465;SDS011;5280;42.600;23.556;2023-05-10T07:51:20;5.70;;;5.20;;
10465;SDS011;5280;42.600;23.556;2023-05-10T07:53:47;5.20;;;4.80;;
10465;SDS011;5280;42.600;23.556;2023-05-10T07:56:20;7.97;;;4.90;;
10465;SDS011;5280;42.600;23.556;2023-05-10T07:58:51;5.33;;;4.83;;
10465;SDS011;5280;42.600;23.556;2023-05-10T08:01:18;5.93;;;5.33;;
10465;SDS011;5280;42.600;23.556;2023-05-10T08:03:45;5.50;;;5.10;;
10465;SDS011;5280;42.600;23.556;2023-05-10T08:06:11;5.40;;;4.90;;
10465;SDS011;5280;42.600;23.556;2023-05-10T08:08:38;5.63;;;4.90;;
10465;SDS011;5280;42.600;23.556;2023-05-10T08:11:05;5.80;;;5.10;;
10465;SDS011;5280;42.600;23.556;2023-05-10T08:13:32;5.20;;;4.77;;
10465;SDS011;5280;42.600;23.556;2023-05-10T08:16:00;5.50;;;5.07;;
10465;SDS011;5280;42.600;23.556;2023-05-10T08:18:27;5.53;;;4.47;;
10465;SDS011;5280;42.600;23.556;2023-05-10T08:20:54;5.00;;;4.60;;
10465;SDS011;5280;42.600;23.556;2023-05-10T08:23:23;5.87;;;4.80;;
10465;SDS011;5280;42.600;23.556;2023-05-10T08:25:51;5.60;;;4.33;;
10465;SDS011;5280;42.600;23.556;2023-05-10T08:28:17;5.20;;;4.73;;
10465;SDS011;5280;42.600;23.556;2023-05-10T08:30:44;5.30;;;4.80;;
10465;SDS011;5280;42.600;23.556;2023-05-10T08:33:13;5.43;;;4.97;;
10465;SDS011;5280;42.600;23.556;2023-05-10T08:35:39;5.10;;;4.70;;
10465;SDS011;5280;42.600;23.556;2023-05-10T08:38:06;5.73;;;5.30;;
10465;SDS011;5280;42.600;23.556;2023-05-10T08:40:33;6.80;;;6.20;;
10465;SDS011;5280;42.600;23.556;2023-05-10T08:43:02;6.40;;;5.80;;
10465;SDS011;5280;42.600;23.556;2023-05-10T08:45:32;6.77;;;6.03;;
10465;SDS011;5280;42.600;23.556;2023-05-10T08:48:01;6.73;;;5.93;;
10465;SDS011;5280;42.600;23.556;2023-05-10T08:50:29;5.87;;;5.30;;
10465;SDS011;5280;42.600;23.556;2023-05-10T08:52:57;6.30;;;5.70;;
10465;SDS011;5280;42.600;23.556;2023-05-10T08:55:26;5.27;;;4.80;;
10465;SDS011;5280;42.600;23.556;2023-05-10T08:57:53;5.70;;;5.23;;
10465;SDS011;5280;42.600;23.556;2023-05-10T09:00:21;5.60;;;5.10;;
10465;SDS011;5280;42.600;23.556;2023-05-10T09:02:49;6.83;;;5.47;;
10465;SDS011;5280;42.600;23.556;2023-05-10T09:05:16;5.73;;;4.80;;
10465;SDS011;5280;42.600;23.556;2023-05-10T09:07:44;6.00;;;5.07;;
10465;SDS011;5280;42.600;23.556;2023-05-10T09:10:11;5.73;;;5.23;;
10465;SDS011;5280;42.600;23.556;2023-05-10T09:12:40;5.50;;;4.97;;
10465;SDS011;5280;42.600;23.556;2023-05-10T09:15:09;5.63;;;5.10;;
10465;SDS011;5280;42.600;23.556;2023-05-10T09:17:37;7.37;;;5.60;;
10465;SDS011;5280;42.600;23.556;2023-05-10T09:20:06;5.17;;;4.77;;
10465;SDS011;5280;42.600;23.556;2023-05-10T09:22:34;5.20;;;4.77;;
10465;SDS011;5280;42.600;23.556;2023-05-10T09:25:06;5.40;;;4.67;;
10465;SDS011;5280;42.600;23.556;2023-05-10T09:27:36;6.20;;;4.57;;
10465;SDS011;5280;42.600;23.556;2023-05-10T09:30:03;5.13;;;4.60;;
10465;SDS011;5280;42.600;23.556;2023-05-10T09:32:38;4.70;;;4.30;;
10465;SDS011;5280;42.600;23.556;2023-05-10T09:35:06;4.17;;;3.87;;
10465;SDS011;5280;42.600;23.556;2023-05-10T09:37:36;5.60;;;4.03;;
10465;SDS011;5280;42.600;23.556;2023-05-10T09:40:10;4.40;;;4.10;;
10465;SDS011;5280;42.600;23.556;2023-05-10T09:42:38;6.70;;;4.90;;
10465;SDS011;5280;42.600;23.556;2023-05-10T09:45:06;4.90;;;4.40;;
10465;SDS011;5280;42.600;23.556;2023-05-10T09:47:34;5.77;;;4.40;;
10465;SDS011;5280;42.600;23.556;2023-05-10T09:50:02;5.10;;;4.67;;
10465;SDS011;5280;42.600;23.556;2023-05-10T09:52:30;3.97;;;3.67;;
10465;SDS011;5280;42.600;23.556;2023-05-10T09:54:57;4.50;;;4.10;;
10465;SDS011;5280;42.600;23.556;2023-05-10T09:57:25;4.90;;;4.50;;
10465;SDS011;5280;42.600;23.556;2023-05-10T09:59:52;3.87;;;3.57;;
10465;SDS011;5280;42.600;23.556;2023-05-10T10:02:20;4.73;;;4.33;;
10465;SDS011;5280;42.600;23.556;2023-05-10T10:04:48;3.50;;;3.20;;
10465;SDS011;5280;42.600;23.556;2023-05-10T10:07:17;3.87;;;3.60;;
10465;SDS011;5280;42.600;23.556;2023-05-10T10:09:50;3.83;;;3.53;;
10465;SDS011;5280;42.600;23.556;2023-05-10T10:12:17;6.53;;;3.70;;
10465;SDS011;5280;42.600;23.556;2023-05-10T10:14:46;4.43;;;4.13;;
10465;SDS011;5280;42.600;23.556;2023-05-10T10:17:15;3.10;;;2.90;;
10465;SDS011;5280;42.600;23.556;2023-05-10T10:19:43;3.17;;;2.97;;
10465;SDS011;5280;42.600;23.556;2023-05-10T10:22:10;2.93;;;2.73;;
10465;SDS011;5280;42.600;23.556;2023-05-10T10:24:37;3.07;;;2.87;;
10465;SDS011;5280;42.600;23.556;2023-05-10T10:27:14;4.47;;;3.13;;
10465;SDS011;5280;42.600;23.556;2023-05-10T10:29:52;3.30;;;3.00;;
10465;SDS011;5280;42.600;23.556;2023-05-10T10:32:30;3.73;;;3.10;;
10465;SDS011;5280;42.600;23.556;2023-05-10T10:35:04;3.20;;;2.70;;
10465;SDS011;5280;42.600;23.556;2023-05-10T10:37:47;3.33;;;2.90;;
10465;SDS011;5280;42.600;23.556;2023-05-10T10:40:22;3.97;;;2.87;;
10465;SDS011;5280;42.600;23.556;2023-05-10T10:42:51;3.27;;;2.77;;
10465;SDS011;5280;42.600;23.556;2023-05-10T10:45:20;3.60;;;3.30;;
10465;SDS011;5280;42.600;23.556;2023-05-10T10:47:48;3.40;;;2.70;;
10465;SDS011;5280;42.600;23.556;2023-05-10T10:50:16;4.73;;;3.43;;
10465;SDS011;5280;42.600;23.556;2023-05-10T10:52:43;3.90;;;3.23;;
10465;SDS011;5280;42.600;23.556;2023-05-10T10:55:12;3.20;;;2.87;;
10465;SDS011;5280;42.600;23.556;2023-05-10T10:57:43;3.30;;;2.87;;
10465;SDS011;5280;42.600;23.556;2023-05-10T11:00:22;3.30;;;3.10;;
10465;SDS011;5280;42.600;23.556;2023-05-10T11:02:51;3.33;;;3.07;;
10465;SDS011;5280;42.600;23.556;2023-05-10T11:08:14;3.70;;;3.37;;
10465;SDS011;5280;42.600;23.556;2023-05-10T11:10:50;3.13;;;2.83;;
10465;SDS011;5280;42.600;23.556;2023-05-10T11:13:26;5.33;;;3.20;;
10465;SDS011;5280;42.600;23.556;2023-05-10T11:15:56;3.53;;;3.20;;
10465;SDS011;5280;42.600;23.556;2023-05-10T11:18:24;3.33;;;3.03;;
10465;SDS011;5280;42.600;23.556;2023-05-10T11:20:52;3.13;;;2.93;;
10465;SDS011;5280;42.600;23.556;2023-05-10T11:23:23;4.47;;;3.00;;
10465;SDS011;5280;42.600;23.556;2023-05-10T11:25:58;5.70;;;3.37;;
10465;SDS011;5280;42.600;23.556;2023-05-10T11:28:26;3.70;;;3.40;;
10465;SDS011;5280;42.600;23.556;2023-05-10T11:30:53;3.40;;;3.10;;
10465;SDS011;5280;42.600;23.556;2023-05-10T11:33:23;3.03;;;2.83;;
10465;SDS011;5280;42.600;23.556;2023-05-10T11:35:50;3.90;;;3.50;;
10465;SDS011;5280;42.600;23.556;2023-05-10T11:38:19;3.60;;;3.30;;
10465;SDS011;5280;42.600;23.556;2023-05-10T11:40:45;3.20;;;3.00;;
10465;SDS011;5280;42.600;23.556;2023-05-10T11:43:15;4.03;;;3.33;;
10465;SDS011;5280;42.600;23.556;2023-05-10T11:45:42;4.27;;;3.43;;
10465;SDS011;5280;42.600;23.556;2023-05-10T11:48:11;5.73;;;3.20;;
10465;SDS011;5280;42.600;23.556;2023-05-10T11:50:39;4.07;;;3.67;;
10465;SDS011;5280;42.600;23.556;2023-05-10T11:53:06;4.10;;;3.73;;
10465;SDS011;5280;42.600;23.556;2023-05-10T11:55:33;3.57;;;3.33;;
10465;SDS011;5280;42.600;23.556;2023-05-10T11:58:00;3.50;;;3.20;;
10465;SDS011;5280;42.600;23.556;2023-05-10T12:00:28;3.50;;;3.17;;
10465;SDS011;5280;42.600;23.556;2023-05-10T12:02:56;3.40;;;3.03;;
10465;SDS011;5280;42.600;23.556;2023-05-10T12:05:24;3.63;;;2.90;;
10465;SDS011;5280;42.600;23.556;2023-05-10T12:07:52;4.43;;;3.30;;
10465;SDS011;5280;42.600;23.556;2023-05-10T12:10:25;3.97;;;3.47;;
10465;SDS011;5280;42.600;23.556;2023-05-10T12:12:52;3.73;;;3.43;;
10465;SDS011;5280;42.600;23.556;2023-05-10T12:15:20;4.17;;;3.70;;
10465;SDS011;5280;42.600;23.556;2023-05-10T12:17:48;4.10;;;3.70;;
10465;SDS011;5280;42.600;23.556;2023-05-10T12:20:16;5.27;;;3.63;;
10465;SDS011;5280;42.600;23.556;2023-05-10T12:22:45;3.67;;;3.27;;
10465;SDS011;5280;42.600;23.556;2023-05-10T12:25:14;5.93;;;3.43;;
10465;SDS011;5280;42.600;23.556;2023-05-10T12:27:47;4.97;;;3.57;;
10465;SDS011;5280;42.600;23.556;2023-05-10T12:30:18;3.37;;;3.10;;
10465;SDS011;5280;42.600;23.556;2023-05-10T12:32:47;3.40;;;3.20;;
10465;SDS011;5280;42.600;23.556;2023-05-10T12:35:14;3.70;;;3.37;;
10465;SDS011;5280;42.600;23.556;2023-05-10T12:37:41;4.13;;;3.80;;
10465;SDS011;5280;42.600;23.556;2023-05-10T12:40:09;3.67;;;3.40;;
10465;SDS011;5280;42.600;23.556;2023-05-10T12:42:39;5.10;;;3.60;;
10465;SDS011;5280;42.600;23.556;2023-05-10T12:45:07;5.87;;;4.00;;
10465;SDS011;5280;42.600;23.556;2023-05-10T12:47:34;4.43;;;3.40;;
10465;SDS011;5280;42.600;23.556;2023-05-10T12:50:02;4.57;;;3.67;;
10465;SDS011;5280;42.600;23.556;2023-05-10T12:52:29;3.70;;;3.30;;
10465;SDS011;5280;42.600;23.556;2023-05-10T12:54:57;4.30;;;3.93;;
10465;SDS011;5280;42.600;23.556;2023-05-10T12:57:24;4.07;;;3.70;;
10465;SDS011;5280;42.600;23.556;2023-05-10T12:59:54;4.60;;;3.80;;
10465;SDS011;5280;42.600;23.556;2023-05-10T13:02:21;3.90;;;3.60;;
10465;SDS011;5280;42.600;23.556;2023-05-10T13:04:48;3.83;;;3.53;;
10465;SDS011;5280;42.600;23.556;2023-05-10T13:07:15;4.87;;;3.57;;
10465;SDS011;5280;42.600;23.556;2023-05-10T13:09:42;4.47;;;4.07;;
10465;SDS011;5280;42.600;23.556;2023-05-10T13:12:09;4.10;;;3.50;;
10465;SDS011;5280;42.600;23.556;2023-05-10T13:14:36;4.03;;;3.57;;
10465;SDS011;5280;42.600;23.556;2023-05-10T13:17:06;4.10;;;3.77;;
10465;SDS011;5280;42.600;23.556;2023-05-10T13:19:33;5.63;;;3.73;;
10465;SDS011;5280;42.600;23.556;2023-05-10T13:22:01;3.90;;;3.50;;
10465;SDS011;5280;42.600;23.556;2023-05-10T13:24:29;4.30;;;3.70;;
10465;SDS011;5280;42.600;23.556;2023-05-10T13:26:56;3.37;;;3.17;;
10465;SDS011;5280;42.600;23.556;2023-05-10T13:29:23;4.40;;;4.00;;
10465;SDS011;5280;42.600;23.556;2023-05-10T13:31:50;3.23;;;3.03;;
10465;SDS011;5280;42.600;23.556;2023-05-10T13:34:18;3.90;;;3.60;;
10465;SDS011;5280;42.600;23.556;2023-05-10T13:36:46;3.43;;;3.17;;
10465;SDS011;5280;42.600;23.556;2023-05-10T13:39:13;5.23;;;3.60;;
10465;SDS011;5280;42.600;23.556;2023-05-10T13:41:40;3.57;;;3.27;;
10465;SDS011;5280;42.600;23.556;2023-05-10T13:44:07;4.40;;;3.90;;
10465;SDS011;5280;42.600;23.556;2023-05-10T13:46:34;3.50;;;3.20;;
10465;SDS011;5280;42.600;23.556;2023-05-10T13:49:01;6.23;;;3.60;;
10465;SDS011;5280;42.600;23.556;2023-05-10T13:51:29;3.97;;;3.40;;
10465;SDS011;5280;42.600;23.556;2023-05-10T13:53:56;4.20;;;3.40;;
10465;SDS011;5280;42.600;23.556;2023-05-10T13:56:23;3.70;;;3.40;;
10465;SDS011;5280;42.600;23.556;2023-05-10T13:58:50;3.73;;;3.33;;
10465;SDS011;5280;42.600;23.556;2023-05-10T14:01:17;4.63;;;3.63;;
10465;SDS011;5280;42.600;23.556;2023-05-10T14:03:44;3.57;;;3.27;;
10465;SDS011;5280;42.600;23.556;2023-05-10T14:06:11;5.67;;;3.60;;
10465;SDS011;5280;42.600;23.556;2023-05-10T14:08:39;3.67;;;3.40;;
10465;SDS011;5280;42.600;23.556;2023-05-10T14:11:06;4.27;;;3.87;;
10465;SDS011;5280;42.600;23.556;2023-05-10T14:13:33;3.90;;;3.47;;
10465;SDS011;5280;42.600;23.556;2023-05-10T14:16:00;4.20;;;3.80;;
10465;SDS011;5280;42.600;23.556;2023-05-10T14:18:27;3.83;;;3.53;;
10465;SDS011;5280;42.600;23.556;2023-05-10T14:20:54;4.27;;;3.87;;
10465;SDS011;5280;42.600;23.556;2023-05-10T14:23:21;4.43;;;4.03;;
10465;SDS011;5280;42.600;23.556;2023-05-10T14:25:51;4.17;;;3.67;;
10465;SDS011;5280;42.600;23.556;2023-05-10T14:28:18;6.93;;;3.60;;
10465;SDS011;5280;42.600;23.556;2023-05-10T14:30:45;4.30;;;3.90;;
10465;SDS011;5280;42.600;23.556;2023-05-10T14:33:12;4.10;;;3.77;;
10465;SDS011;5280;42.600;23.556;2023-05-10T14:35:39;6.67;;;3.73;;
10465;SDS011;5280;42.600;23.556;2023-05-10T14:38:10;3.83;;;3.53;;
10465;SDS011;5280;42.600;23.556;2023-05-10T14:46:54;4.87;;;3.73;;
10465;SDS011;5280;42.600;23.556;2023-05-10T14:53:05;4.07;;;3.73;;
10465;SDS011;5280;42.600;23.556;2023-05-10T14:56:02;4.33;;;3.97;;
10465;SDS011;5280;42.600;23.556;2023-05-10T14:58:33;4.83;;;4.03;;
10465;SDS011;5280;42.600;23.556;2023-05-10T15:03:49;6.57;;;4.43;;
10465;SDS011;5280;42.600;23.556;2023-05-10T15:06:33;4.40;;;3.93;;
10465;SDS011;5280;42.600;23.556;2023-05-10T15:09:02;4.30;;;3.90;;
10465;SDS011;5280;42.600;23.556;2023-05-10T15:11:31;3.90;;;3.60;;
10465;SDS011;5280;42.600;23.556;2023-05-10T15:14:00;6.53;;;4.87;;
10465;SDS011;5280;42.600;23.556;2023-05-10T15:16:33;4.87;;;3.83;;
10465;SDS011;5280;42.600;23.556;2023-05-10T15:18:59;4.40;;;4.10;;
10465;SDS011;5280;42.600;23.556;2023-05-10T15:21:26;4.57;;;4.17;;